Time;durP1;ratioP1;P1;durP2;ratioP2;P2;SDS_P1;SDS_P2;PMS_P1;PMS_P2;Temp;Humidity;BMP_temperature;BMP_pressure;BME280_temperature;BME280_humidity;BME280_pressure;Samples;Min_cycle;Max_cycle;Signal;HPM_P1;HPM_P2
2023/06/02 00:01:28;;;;;;;19.87;5.83;;;;;;;13.36;76.80;99796.72;4241261;28;20622;-70
2023/06/02 00:03:55;;;;;;;18.07;5.60;;;;;;;13.48;76.50;99798.03;4239899;28;20304;-69
2023/06/02 00:06:22;;;;;;;22.60;5.67;;;;;;;13.40;76.47;99803.53;4232750;28;20338;-66
2023/06/02 00:08:48;;;;;;;14.77;5.47;;;;;;;13.34;76.66;99805.06;4225978;28;20232;-69
2023/06/02 00:11:15;;;;;;;18.93;5.90;;;;;;;13.38;76.23;99802.81;4225484;28;21769;-68
2023/06/02 00:13:42;;;;;;;14.37;5.43;;;;;;;13.53;75.46;99803.75;4222606;28;21184;-68
2023/06/02 00:16:09;;;;;;;13.83;5.80;;;;;;;13.59;74.56;99797.59;4219464;28;20254;-67
2023/06/02 00:18:37;;;;;;;16.83;5.40;;;;;;;13.46;74.56;99802.78;4224296;28;20226;-70
2023/06/02 00:21:06;;;;;;;19.30;5.37;;;;;;;13.49;74.70;99798.88;4207894;28;21746;-67
2023/06/02 00:23:33;;;;;;;18.10;5.50;;;;;;;13.39;74.75;99807.28;4212600;28;20298;-68
2023/06/02 00:26:00;;;;;;;13.80;5.13;;;;;;;13.37;74.89;99810.13;4229833;28;22284;-68
2023/06/02 00:28:27;;;;;;;18.50;6.03;;;;;;;13.43;74.46;99792.28;4203241;28;20378;-68
2023/06/02 00:30:54;;;;;;;18.10;5.57;;;;;;;13.53;74.09;99801.03;4226930;28;20227;-70
2023/06/02 00:33:20;;;;;;;24.43;5.30;;;;;;;13.54;73.92;99801.88;4219312;28;20231;-68
2023/06/02 00:35:47;;;;;;;20.33;5.10;;;;;;;13.54;74.08;99805.44;4226415;28;20244;-68
2023/06/02 00:38:13;;;;;;;16.73;5.43;;;;;;;13.45;74.17;99803.81;4222949;28;20293;-68
2023/06/02 00:40:40;;;;;;;14.33;5.00;;;;;;;13.16;75.21;99817.06;4213148;28;23635;-69
2023/06/02 00:43:07;;;;;;;23.93;5.63;;;;;;;13.17;75.35;99812.50;4222788;28;20290;-68
2023/06/02 00:45:34;;;;;;;18.30;5.60;;;;;;;12.97;75.93;99807.50;4210182;28;20232;-67
2023/06/02 00:48:01;;;;;;;20.63;6.23;;;;;;;13.15;75.42;99815.38;4224783;28;20231;-68
2023/06/02 00:50:28;;;;;;;17.17;5.30;;;;;;;13.22;75.10;99815.50;4226684;28;20231;-67
2023/06/02 00:52:57;;;;;;;15.77;5.60;;;;;;;13.01;75.89;99818.84;4207979;28;20690;-69
2023/06/02 00:55:25;;;;;;;22.00;6.53;;;;;;;12.91;76.14;99816.38;4220626;28;21717;-67
2023/06/02 00:57:53;;;;;;;16.33;6.00;;;;;;;13.04;75.59;99820.34;4221956;28;20236;-70
2023/06/02 01:00:20;;;;;;;17.70;6.20;;;;;;;12.80;76.24;99808.63;4214999;28;20231;-69
2023/06/02 01:02:47;;;;;;;15.53;5.77;;;;;;;12.63;77.01;99813.25;4219555;28;20390;-68
2023/06/02 01:05:14;;;;;;;18.43;6.10;;;;;;;12.64;76.96;99809.53;4207224;28;20239;-69
2023/06/02 01:07:46;;;;;;;17.03;5.70;;;;;;;12.77;76.53;99815.22;4208862;28;20235;-70
2023/06/02 01:10:15;;;;;;;20.33;6.13;;;;;;;12.77;76.69;99817.13;4219827;28;23504;-68
2023/06/02 01:12:43;;;;;;;17.27;5.73;;;;;;;12.76;76.57;99819.00;4215626;28;20676;-69
2023/06/02 01:15:10;;;;;;;17.17;5.77;;;;;;;12.55;77.44;99808.72;4219849;28;20231;-71
2023/06/02 01:17:38;;;;;;;16.83;5.87;;;;;;;12.65;77.54;99813.94;4199976;28;20270;-69
2023/06/02 01:20:05;;;;;;;19.93;6.57;;;;;;;12.75;76.75;99817.31;4228971;28;25073;-70
2023/06/02 01:22:53;;;;;;;29.23;6.23;;;;;;;12.63;77.56;99821.41;4201649;28;22996;-69
2023/06/02 01:25:21;;;;;;;21.73;6.57;;;;;;;12.55;77.80;99813.28;4215073;28;20271;-69
2023/06/02 01:27:49;;;;;;;16.47;5.47;;;;;;;12.67;77.44;99825.47;4225011;28;21386;-69
2023/06/02 01:30:17;;;;;;;22.27;7.00;;;;;;;12.65;77.49;99814.78;4230559;28;23532;-70
2023/06/02 01:33:10;;;;;;;22.17;5.80;;;;;;;12.73;77.09;99822.06;4224561;28;20227;-70
2023/06/02 01:35:47;;;;;;;14.10;5.53;;;;;;;12.70;77.03;99821.56;4228100;28;20240;-67
2023/06/02 01:38:16;;;;;;;18.10;6.53;;;;;;;12.67;76.88;99818.16;4226058;28;20247;-67
2023/06/02 01:40:43;;;;;;;19.33;6.07;;;;;;;12.66;76.87;99816.47;4216443;28;20686;-70
2023/06/02 01:43:10;;;;;;;20.13;6.37;;;;;;;12.63;76.80;99814.13;4215728;28;21090;-69
2023/06/02 01:45:38;;;;;;;18.23;5.83;;;;;;;12.70;76.21;99808.00;4205722;28;20677;-68
2023/06/02 01:48:06;;;;;;;16.90;5.40;;;;;;;12.80;76.03;99811.34;4222467;28;20313;-67
2023/06/02 01:50:34;;;;;;;20.53;6.43;;;;;;;12.66;76.46;99813.75;4231736;28;20309;-68
2023/06/02 01:53:01;;;;;;;18.07;6.60;;;;;;;12.54;76.92;99811.63;4227047;28;20316;-68
2023/06/02 01:55:28;;;;;;;17.13;5.90;;;;;;;12.39;77.75;99812.34;4215274;28;20792;-68
2023/06/02 01:57:54;;;;;;;24.33;7.27;;;;;;;12.29;78.20;99815.25;4238329;28;20236;-68
2023/06/02 02:00:21;;;;;;;18.17;6.10;;;;;;;12.25;78.11;99808.50;4227012;28;20292;-67
2023/06/02 02:02:49;;;;;;;20.80;7.27;;;;;;;12.12;78.58;99805.47;4223203;28;20261;-67
2023/06/02 02:05:16;;;;;;;14.47;6.33;;;;;;;12.02;78.75;99792.09;4209760;28;20235;-69
2023/06/02 02:07:44;;;;;;;23.20;6.93;;;;;;;12.14;78.93;99817.84;4241256;28;20825;-69
2023/06/02 02:10:11;;;;;;;17.27;6.80;;;;;;;12.35;78.06;99819.97;4218523;28;20278;-68
2023/06/02 02:12:40;;;;;;;20.33;6.47;;;;;;;12.46;77.72;99817.91;4231242;28;20235;-66
2023/06/02 02:15:07;;;;;;;17.97;6.73;;;;;;;12.33;77.97;99816.63;4230051;28;21226;-68
2023/06/02 02:17:34;;;;;;;16.90;6.60;;;;;;;12.48;77.58;99815.88;4227177;28;23100;-69
2023/06/02 02:20:05;;;;;;;19.77;6.80;;;;;;;12.56;77.26;99815.84;4230509;28;23437;-67
2023/06/02 02:22:32;;;;;;;17.37;6.43;;;;;;;12.51;77.39;99801.94;4224312;28;20452;-68
2023/06/02 02:24:59;;;;;;;11.57;5.80;;;;;;;12.59;77.14;99806.50;4215553;28;20377;-67
2023/06/02 02:27:26;;;;;;;18.37;5.87;;;;;;;12.68;76.54;99808.19;4235489;28;20230;-69
2023/06/02 02:29:52;;;;;;;22.10;6.53;;;;;;;12.55;76.93;99805.16;4218105;28;20234;-66
2023/06/02 02:32:19;;;;;;;16.67;6.40;;;;;;;12.57;76.59;99806.69;4230127;28;20231;-69
2023/06/02 02:34:46;;;;;;;14.90;5.70;;;;;;;12.54;76.84;99804.31;4225063;28;20407;-67
2023/06/02 02:37:13;;;;;;;18.93;5.93;;;;;;;12.41;77.32;99804.03;4226259;28;26497;-68
2023/06/02 02:39:40;;;;;;;13.07;6.77;;;;;;;12.47;77.20;99801.44;4235704;28;20669;-68
2023/06/02 02:42:07;;;;;;;19.53;6.83;;;;;;;12.51;76.77;99810.09;4224460;28;21599;-69
2023/06/02 02:44:33;;;;;;;26.27;6.97;;;;;;;12.38;77.51;99802.53;4220480;28;20247;-67
2023/06/02 02:47:00;;;;;;;20.87;6.47;;;;;;;12.29;77.76;99809.81;4241793;28;20273;-70
2023/06/02 02:49:27;;;;;;;13.97;6.50;;;;;;;12.06;79.20;99807.00;4249652;28;25607;-67
2023/06/02 02:51:54;;;;;;;18.80;6.63;;;;;;;12.09;78.89;99805.81;4229578;28;21128;-67
2023/06/02 02:54:21;;;;;;;20.60;6.40;;;;;;;12.02;79.08;99800.22;4260366;28;20435;-68
2023/06/02 02:56:48;;;;;;;27.47;7.40;;;;;;;11.82;80.04;99810.59;4250624;28;21823;-70
2023/06/02 02:59:15;;;;;;;19.90;6.60;;;;;;;12.02;79.00;99802.94;4239761;28;20827;-66
2023/06/02 03:01:46;;;;;;;16.17;7.30;;;;;;;11.89;79.66;99812.44;4242690;28;21801;-68
2023/06/02 03:04:21;;;;;;;25.63;6.97;;;;;;;11.94;79.44;99809.19;4244780;28;20228;-66
2023/06/02 03:06:49;;;;;;;17.17;6.90;;;;;;;11.82;79.86;99811.41;4250354;28;20292;-67
2023/06/02 03:09:16;;;;;;;16.80;6.93;;;;;;;11.64;80.99;99808.03;4238108;28;20336;-71
2023/06/02 03:11:43;;;;;;;20.57;8.43;;;;;;;11.54;81.60;99810.91;4232455;28;20238;-69
2023/06/02 03:14:10;;;;;;;20.57;7.10;;;;;;;11.65;81.16;99812.44;4235173;28;20238;-66
2023/06/02 03:16:41;;;;;;;23.77;7.83;;;;;;;11.80;80.67;99802.59;4238017;28;20425;-67
2023/06/02 03:19:08;;;;;;;23.17;8.77;;;;;;;11.77;80.69;99804.81;4205278;28;20439;-67
2023/06/02 03:21:41;;;;;;;21.30;8.53;;;;;;;11.57;81.65;99806.00;4216337;28;20236;-67
2023/06/02 03:24:13;;;;;;;23.93;8.43;;;;;;;11.56;81.61;99817.03;4225649;28;20242;-69
2023/06/02 03:26:45;;;;;;;20.73;7.87;;;;;;;11.48;82.06;99812.44;4234284;28;20314;-68
2023/06/02 03:29:12;;;;;;;20.83;8.10;;;;;;;11.65;81.47;99824.16;4234021;28;20243;-67
2023/06/02 03:31:41;;;;;;;20.87;7.87;;;;;;;11.70;81.44;99829.91;4226179;28;20669;-68
2023/06/02 03:34:08;;;;;;;24.63;7.53;;;;;;;11.83;81.11;99832.09;4211693;28;22353;-68
2023/06/02 03:36:35;;;;;;;18.63;8.07;;;;;;;12.01;80.47;99836.50;4229637;28;20655;-69
2023/06/02 03:39:09;;;;;;;25.07;7.50;;;;;;;11.98;80.66;99828.72;4227086;28;20244;-69
2023/06/02 03:41:36;;;;;;;18.30;7.67;;;;;;;12.07;80.22;99834.97;4229690;28;20228;-69
2023/06/02 03:44:03;;;;;;;23.73;8.37;;;;;;;12.11;79.51;99834.47;4222078;28;21797;-67
2023/06/02 03:46:30;;;;;;;23.83;9.33;;;;;;;11.94;80.10;99830.03;4227674;28;20341;-66
2023/06/02 03:48:57;;;;;;;21.90;8.07;;;;;;;11.96;80.40;99826.16;4224270;28;20236;-68
2023/06/02 03:51:23;;;;;;;20.50;8.73;;;;;;;11.88;80.44;99826.16;4217581;28;20282;-69
2023/06/02 03:53:50;;;;;;;25.40;8.17;;;;;;;11.89;80.84;99839.53;4243994;28;20602;-68
2023/06/02 03:56:17;;;;;;;36.33;9.93;;;;;;;12.06;80.22;99839.56;4223373;28;20823;-68
2023/06/02 03:58:44;;;;;;;22.17;9.13;;;;;;;11.92;80.40;99838.34;4231736;28;21622;-70
2023/06/02 04:01:12;;;;;;;29.97;9.47;;;;;;;11.91;80.26;99836.66;4235274;28;23480;-69
2023/06/02 04:03:41;;;;;;;22.60;9.77;;;;;;;11.92;80.90;99848.38;4223693;28;20331;-68
2023/06/02 04:06:08;;;;;;;23.90;9.73;;;;;;;11.94;80.47;99843.59;4216918;28;20462;-66
2023/06/02 04:08:36;;;;;;;21.20;9.37;;;;;;;12.05;79.51;99846.84;4235320;28;20755;-67
2023/06/02 04:11:03;;;;;;;23.77;8.77;;;;;;;12.15;79.29;99843.97;4224758;28;21133;-67
2023/06/02 04:13:30;;;;;;;24.50;9.33;;;;;;;11.84;79.83;99838.34;4220752;28;20254;-70
2023/06/02 04:15:57;;;;;;;21.43;8.90;;;;;;;11.86;80.12;99849.88;4266864;28;20246;-67
2023/06/02 04:18:23;;;;;;;21.90;8.60;;;;;;;11.96;79.64;99850.56;4217310;28;21747;-66
2023/06/02 04:20:50;;;;;;;21.10;9.40;;;;;;;11.89;79.70;99853.09;4215769;28;20235;-68
2023/06/02 04:23:17;;;;;;;21.20;9.40;;;;;;;11.79;80.10;99848.88;4230464;28;20531;-69
2023/06/02 04:25:44;;;;;;;23.90;8.50;;;;;;;12.15;78.99;99853.97;4234898;28;22065;-68
2023/06/02 04:28:10;;;;;;;26.37;8.27;;;;;;;12.21;78.91;99839.69;4218061;28;21702;-68
2023/06/02 04:30:38;;;;;;;23.87;8.50;;;;;;;12.36;78.41;99846.09;4213861;28;20606;-67
2023/06/02 04:33:05;;;;;;;23.00;8.87;;;;;;;12.48;78.06;99845.75;4210081;28;20238;-70
2023/06/02 04:35:32;;;;;;;23.03;8.67;;;;;;;12.64;77.08;99851.13;4228321;28;20711;-68
2023/06/02 04:37:59;;;;;;;23.60;9.47;;;;;;;12.91;76.46;99862.53;4221000;28;20242;-68
2023/06/02 04:40:26;;;;;;;25.00;8.07;;;;;;;12.78;76.24;99849.53;4227506;28;22819;-68
2023/06/02 04:42:53;;;;;;;24.13;8.87;;;;;;;12.59;76.78;99845.34;4239491;28;25587;-69
2023/06/02 04:45:20;;;;;;;20.63;8.30;;;;;;;12.45;77.43;99865.09;4219155;28;20583;-68
2023/06/02 04:47:47;;;;;;;22.70;9.50;;;;;;;12.30;79.00;99854.13;4224759;28;20263;-64
2023/06/02 04:50:14;;;;;;;25.20;8.77;;;;;;;12.59;77.40;99864.38;4199973;28;25454;-63
2023/06/02 04:52:44;;;;;;;19.13;8.77;;;;;;;12.33;78.33;99853.75;4215103;28;20290;-63
2023/06/02 04:55:11;;;;;;;21.80;8.63;;;;;;;12.53;78.16;99862.34;4203880;28;20246;-65
2023/06/02 04:57:38;;;;;;;20.20;8.17;;;;;;;12.64;77.05;99853.84;4222766;28;22275;-71
2023/06/02 05:00:06;;;;;;;21.37;7.87;;;;;;;12.83;76.75;99859.88;4231267;28;20245;-61
2023/06/02 05:02:34;;;;;;;19.87;8.07;;;;;;;12.71;76.99;99862.13;4200299;28;20274;-63
2023/06/02 05:05:02;;;;;;;20.60;7.67;;;;;;;12.95;75.34;99871.19;4231509;28;20239;-63
2023/06/02 05:07:29;;;;;;;21.50;8.30;;;;;;;12.72;76.40;99866.53;4222170;28;21810;-63
2023/06/02 05:09:56;;;;;;;22.07;7.67;;;;;;;12.97;75.18;99863.72;4220920;28;20238;-62
2023/06/02 05:12:24;;;;;;;19.40;8.17;;;;;;;12.71;76.50;99872.16;4209324;28;20231;-62
2023/06/02 05:14:51;;;;;;;16.87;7.93;;;;;;;12.50;77.26;99873.56;4225457;28;20240;-65
2023/06/02 05:17:27;;;;;;;18.30;7.30;;;;;;;12.72;76.84;99866.53;4213504;28;20239;-64
2023/06/02 05:19:55;;;;;;;18.13;7.40;;;;;;;12.83;76.21;99871.59;4218498;28;20312;-64
2023/06/02 05:22:22;;;;;;;15.07;7.40;;;;;;;12.63;77.39;99867.56;4226754;28;20299;-63
2023/06/02 05:24:48;;;;;;;20.80;8.00;;;;;;;12.67;77.40;99874.38;4222230;28;20627;-64
2023/06/02 05:27:15;;;;;;;21.07;7.73;;;;;;;13.05;75.51;99860.97;4218051;28;22229;-68
2023/06/02 05:29:41;;;;;;;17.43;7.17;;;;;;;13.27;75.02;99872.88;4225835;28;20232;-66
2023/06/02 05:32:08;;;;;;;24.83;7.53;;;;;;;13.09;75.91;99870.44;4220198;28;20610;-68
2023/06/02 05:34:35;;;;;;;23.90;7.30;;;;;;;13.47;74.47;99872.47;4214252;28;23191;-66
2023/06/02 05:37:02;;;;;;;18.80;6.90;;;;;;;13.27;74.71;99870.16;4219550;28;21239;-69
2023/06/02 05:39:29;;;;;;;21.40;7.47;;;;;;;13.06;75.42;99881.69;4233287;28;20253;-68
2023/06/02 05:41:55;;;;;;;17.00;7.20;;;;;;;13.06;75.67;99883.53;4221779;28;20243;-70
2023/06/02 05:44:22;;;;;;;18.63;6.60;;;;;;;13.23;75.36;99884.28;4239723;28;21364;-67
2023/06/02 05:46:48;;;;;;;22.10;8.60;;;;;;;13.50;74.54;99882.97;4228542;28;22232;-67
2023/06/02 05:49:15;;;;;;;17.30;6.73;;;;;;;13.56;74.44;99892.28;4218655;28;20321;-66
2023/06/02 05:51:42;;;;;;;14.50;7.27;;;;;;;13.38;74.65;99895.25;4225898;28;20238;-65
2023/06/02 06:01:48;;;;;;;17.33;8.00;;;;;;;13.16;75.97;99900.47;4270638;28;20616;-63
2023/06/02 06:04:14;;;;;;;18.77;7.73;;;;;;;13.13;75.95;99904.41;4274312;28;20238;-62
2023/06/02 06:06:41;;;;;;;20.37;7.23;;;;;;;13.21;75.71;99906.22;4240556;28;20226;-61
2023/06/02 06:09:08;;;;;;;17.37;6.63;;;;;;;13.03;76.36;99905.63;4242155;28;20296;-62
2023/06/02 06:11:36;;;;;;;18.37;7.17;;;;;;;12.99;76.95;99903.25;4258786;28;20242;-64
2023/06/02 06:14:07;;;;;;;18.20;6.73;;;;;;;13.09;76.39;99904.94;4239289;28;20230;-60
2023/06/02 06:16:34;;;;;;;21.57;8.00;;;;;;;13.25;76.13;99904.84;4232158;28;20484;-64
2023/06/02 06:19:02;;;;;;;15.60;6.77;;;;;;;13.03;77.01;99913.78;4237229;28;20227;-63
2023/06/02 06:21:29;;;;;;;19.37;7.63;;;;;;;12.96;77.65;99902.78;4238354;28;20235;-62
2023/06/02 06:23:56;;;;;;;21.03;7.43;;;;;;;13.14;76.45;99916.94;4251168;28;20584;-62
2023/06/02 06:26:22;;;;;;;19.93;7.00;;;;;;;12.76;78.19;99918.63;4254894;28;20350;-65
2023/06/02 06:28:49;;;;;;;16.23;6.93;;;;;;;12.85;77.70;99917.59;4238046;28;20772;-63
2023/06/02 06:31:15;;;;;;;18.73;7.43;;;;;;;12.84;78.34;99919.44;4235306;28;20240;-60
2023/06/02 06:33:42;;;;;;;18.33;6.90;;;;;;;13.00;77.73;99925.84;4242800;28;21001;-66
2023/06/02 06:36:10;;;;;;;15.43;7.23;;;;;;;12.99;77.18;99922.28;4251195;28;21450;-63
2023/06/02 06:38:38;;;;;;;13.53;7.17;;;;;;;13.05;77.77;99928.88;4239651;28;20254;-64
2023/06/02 06:41:04;;;;;;;20.90;7.10;;;;;;;13.18;77.03;99932.91;4240456;28;20235;-64
2023/06/02 06:43:31;;;;;;;16.90;6.83;;;;;;;12.90;79.37;99930.66;4243368;28;20340;-63
2023/06/02 06:45:59;;;;;;;16.67;6.47;;;;;;;12.91;78.97;99930.47;4235810;28;20258;-60
2023/06/02 06:48:25;;;;;;;16.00;6.37;;;;;;;13.06;78.91;99935.16;4248760;28;20290;-63
2023/06/02 06:50:52;;;;;;;13.67;6.43;;;;;;;13.04;78.56;99940.78;4245165;28;21735;-61
2023/06/02 06:53:19;;;;;;;11.93;5.73;;;;;;;13.14;78.05;99944.13;4237894;28;20297;-63
2023/06/02 06:55:47;;;;;;;19.37;6.70;;;;;;;12.98;78.89;99945.03;4249509;28;20235;-62
2023/06/02 06:58:13;;;;;;;16.77;6.00;;;;;;;12.95;79.55;99945.38;4253901;28;20258;-65
2023/06/02 07:00:40;;;;;;;18.70;6.23;;;;;;;13.21;78.04;99948.88;4237085;28;20323;-63
2023/06/02 07:03:07;;;;;;;13.93;6.00;;;;;;;13.10;78.31;99950.94;4219536;28;21356;-63
2023/06/02 07:05:34;;;;;;;15.67;6.10;;;;;;;13.04;78.31;99954.38;4246529;28;20371;-66
2023/06/02 07:08:00;;;;;;;13.77;5.90;;;;;;;13.20;78.00;99953.44;4242339;28;22901;-64
2023/06/02 07:10:27;;;;;;;13.37;5.83;;;;;;;13.06;77.24;99956.91;4226012;28;20266;-64
2023/06/02 07:12:54;;;;;;;13.53;5.63;;;;;;;13.01;77.56;99960.13;4200103;28;20232;-64
2023/06/02 07:15:21;;;;;;;14.57;5.37;;;;;;;13.18;76.76;99963.63;4236859;28;20320;-67
2023/06/02 07:17:47;;;;;;;12.77;5.57;;;;;;;13.39;76.82;99967.66;4212919;28;23005;-64
2023/06/02 07:20:14;;;;;;;10.50;4.90;;;;;;;13.45;76.21;99961.53;4220724;28;20238;-66
2023/06/02 07:22:40;;;;;;;12.33;4.87;;;;;;;13.52;76.53;99967.94;4227906;28;20286;-65
2023/06/02 07:25:08;;;;;;;12.40;5.43;;;;;;;13.43;76.96;99969.00;4227983;28;21279;-66
2023/06/02 07:27:34;;;;;;;10.37;5.20;;;;;;;13.51;77.04;99981.72;4227950;28;20252;-64
2023/06/02 07:30:03;;;;;;;13.07;5.27;;;;;;;13.71;75.67;99974.78;4229832;28;20243;-68
2023/06/02 07:32:30;;;;;;;13.23;5.07;;;;;;;13.55;75.87;99974.88;4233751;28;20292;-65
2023/06/02 07:34:57;;;;;;;14.37;4.90;;;;;;;13.69;76.46;99978.72;4220239;28;20256;-65
2023/06/02 07:37:23;;;;;;;13.07;4.70;;;;;;;14.08;74.00;99973.19;4231048;28;20362;-66
2023/06/02 07:39:50;;;;;;;16.57;4.93;;;;;;;14.38;71.97;99981.44;4240871;28;20245;-66
2023/06/02 07:42:19;;;;;;;10.20;4.57;;;;;;;14.39;72.99;99979.56;4232162;28;20235;-63
2023/06/02 07:44:46;;;;;;;14.83;5.23;;;;;;;14.19;73.20;99980.06;4244673;28;20433;-67
2023/06/02 07:47:13;;;;;;;10.63;4.73;;;;;;;14.99;71.04;99975.09;4248259;28;22913;-64
2023/06/02 07:49:39;;;;;;;11.87;4.27;;;;;;;15.37;68.89;99969.50;4243018;28;20243;-62
2023/06/02 07:52:06;;;;;;;13.90;4.20;;;;;;;15.49;67.12;99979.91;4230732;28;20297;-64
2023/06/02 07:54:33;;;;;;;10.03;4.17;;;;;;;15.23;67.56;99973.09;4241486;28;25383;-66
2023/06/02 07:56:59;;;;;;;11.07;4.30;;;;;;;15.10;67.34;99978.38;4244458;28;20955;-63
2023/06/02 07:59:26;;;;;;;10.30;4.00;;;;;;;15.14;67.42;99990.59;4234731;28;20317;-65
2023/06/02 08:01:52;;;;;;;11.37;3.67;;;;;;;15.19;66.74;99988.13;4223711;28;20349;-65
2023/06/02 08:04:25;;;;;;;12.83;4.17;;;;;;;15.15;67.15;100000.47;4248700;28;20243;-65
2023/06/02 08:06:55;;;;;;;9.30;3.60;;;;;;;14.76;68.04;99996.97;4235678;28;20240;-66
2023/06/02 08:09:23;;;;;;;12.07;3.70;;;;;;;15.04;67.13;99993.59;4221391;28;20227;-64
2023/06/02 08:11:50;;;;;;;11.90;3.90;;;;;;;14.96;66.86;99999.13;4230383;28;20239;-65
2023/06/02 08:14:17;;;;;;;12.90;3.60;;;;;;;14.89;67.08;100002.63;4226952;28;20232;-66
2023/06/02 08:16:44;;;;;;;15.97;4.20;;;;;;;14.20;69.51;100011.72;4211442;28;20524;-66
2023/06/02 08:19:24;;;;;;;12.37;4.13;;;;;;;14.20;69.67;100019.03;4217827;28;22934;-65
2023/06/02 08:21:51;;;;;;;21.20;4.37;;;;;;;14.17;69.85;100019.41;4226275;28;20313;-65
2023/06/02 08:24:20;;;;;;;13.43;3.67;;;;;;;14.15;69.55;100025.03;4223162;28;23896;-66
2023/06/02 08:26:48;;;;;;;20.70;3.70;;;;;;;14.06;69.84;100029.66;4228187;28;20234;-64
2023/06/02 08:29:15;;;;;;;11.27;3.43;;;;;;;14.19;69.62;100036.41;4228896;28;25018;-63
2023/06/02 08:31:42;;;;;;;10.70;3.70;;;;;;;14.13;69.43;100031.66;4212131;28;20233;-62
2023/06/02 08:34:10;;;;;;;11.27;3.43;;;;;;;14.08;70.14;100033.06;4231539;28;21148;-64
2023/06/02 08:36:37;;;;;;;17.37;4.10;;;;;;;14.28;69.57;100029.84;4237385;28;20231;-66
2023/06/02 08:39:06;;;;;;;10.67;3.47;;;;;;;14.20;69.87;100032.66;4216246;28;20421;-64
2023/06/02 08:41:37;;;;;;;14.33;3.47;;;;;;;14.55;68.19;100031.16;4225762;28;20236;-64
2023/06/02 08:44:04;;;;;;;13.77;3.47;;;;;;;14.74;68.01;100026.28;4232818;28;20247;-66
2023/06/02 08:46:31;;;;;;;13.90;3.80;;;;;;;14.93;67.29;100029.47;4238221;28;20631;-65
2023/06/02 08:49:00;;;;;;;11.90;3.43;;;;;;;14.99;66.58;100034.22;4222830;28;20235;-64
2023/06/02 08:51:28;;;;;;;14.83;3.97;;;;;;;15.10;66.17;100028.28;4225534;28;20243;-65
2023/06/02 08:53:55;;;;;;;21.53;4.13;;;;;;;15.07;66.71;100033.25;4228254;28;21293;-63
2023/06/02 08:56:23;;;;;;;11.70;3.57;;;;;;;15.52;65.27;100021.28;4234523;28;20234;-67
2023/06/02 08:58:49;;;;;;;10.30;3.10;;;;;;;15.94;64.79;100027.06;4211462;28;22034;-67
2023/06/02 09:01:16;;;;;;;20.80;4.70;;;;;;;16.06;63.87;100029.31;4222446;28;20228;-66
2023/06/02 09:03:46;;;;;;;18.77;4.07;;;;;;;16.46;62.07;100030.56;4235868;28;20227;-64
2023/06/02 09:06:17;;;;;;;9.00;3.37;;;;;;;16.53;61.91;100038.81;4219001;28;22930;-66
2023/06/02 09:09:00;;;;;;;15.57;3.70;;;;;;;16.50;61.91;100041.94;4237807;28;20744;-66
2023/06/02 09:11:28;;;;;;;9.33;3.33;;;;;;;16.23;62.42;100030.75;4226192;28;20233;-65
2023/06/02 09:13:55;;;;;;;12.87;3.67;;;;;;;16.13;62.36;100038.41;4226933;28;21126;-63
2023/06/02 09:16:23;;;;;;;16.53;3.97;;;;;;;15.94;62.84;100045.34;4240191;28;22939;-63
2023/06/02 09:18:57;;;;;;;13.80;3.83;;;;;;;15.23;65.34;100049.44;4214108;28;21252;-65
2023/06/02 09:21:29;;;;;;;10.33;3.63;;;;;;;15.37;65.33;100050.47;4234023;28;20605;-68
2023/06/02 09:23:57;;;;;;;14.23;4.50;;;;;;;14.71;68.69;100067.50;4237511;28;20265;-65
2023/06/02 09:26:48;;;;;;;13.87;4.23;;;;;;;14.30;70.69;100071.38;4239353;28;20342;-61
2023/06/02 09:29:15;;;;;;;13.07;3.93;;;;;;;14.00;73.14;100081.25;4213217;28;21757;-65
2023/06/02 09:31:44;;;;;;;12.20;4.03;;;;;;;13.65;73.79;100075.28;4233543;28;26162;-69
2023/06/02 09:34:15;;;;;;;10.50;3.43;;;;;;;13.51;74.87;100096.75;4240450;28;22099;-63
2023/06/02 09:36:43;;;;;;;12.83;3.80;;;;;;;13.08;77.29;100090.72;4221627;28;20581;-66
2023/06/02 09:39:12;;;;;;;15.93;4.07;;;;;;;13.17;77.32;100100.56;4229842;28;20270;-67
2023/06/02 09:41:40;;;;;;;19.47;4.50;;;;;;;12.93;77.40;100096.00;4236683;28;21093;-65
2023/06/02 09:44:11;;;;;;;17.43;4.60;;;;;;;13.14;77.72;100109.91;4253948;28;20352;-68
2023/06/02 09:46:39;;;;;;;21.33;4.53;;;;;;;12.88;78.41;100107.38;4219273;28;20398;-63
2023/06/02 09:49:06;;;;;;;13.67;4.37;;;;;;;12.95;78.56;100111.09;4235706;28;25661;-66
2023/06/02 09:51:33;;;;;;;11.23;4.10;;;;;;;13.08;78.26;100099.72;4230627;28;21363;-67
2023/06/02 09:54:00;;;;;;;14.17;4.20;;;;;;;13.06;78.70;100112.66;4228536;28;20289;-64
2023/06/02 09:56:29;;;;;;;12.90;4.20;;;;;;;13.22;78.75;100113.66;4222029;28;20399;-66
2023/06/02 09:58:55;;;;;;;17.27;4.60;;;;;;;13.23;78.24;100112.59;4224026;28;20550;-65
2023/06/02 10:01:22;;;;;;;18.87;4.27;;;;;;;13.26;77.55;100112.28;4233689;28;20333;-65
2023/06/02 10:03:49;;;;;;;16.37;3.60;;;;;;;13.20;76.31;100113.78;4227684;28;20235;-66
2023/06/02 10:06:20;;;;;;;16.03;3.97;;;;;;;13.20;76.29;100113.78;4242574;28;20235;-66
2023/06/02 10:09:18;;;;;;;15.50;4.10;;;;;;;13.38;75.93;100112.75;4232970;28;20231;-65
2023/06/02 10:11:57;;;;;;;17.77;4.20;;;;;;;13.27;76.01;100113.97;4231892;28;21441;-51
2023/06/02 10:14:52;;;;;;;12.60;4.00;;;;;;;13.70;74.66;100113.72;4227422;28;22200;-50
2023/06/02 10:17:30;;;;;;;17.33;3.70;;;;;;;14.17;72.93;100120.13;4220713;28;20264;-49
2023/06/02 10:20:31;;;;;;;13.43;3.77;;;;;;;14.44;71.83;100118.75;4226899;28;20234;-48
2023/06/02 10:23:04;;;;;;;12.63;3.70;;;;;;;14.49;70.66;100119.06;4221375;28;20487;-50
2023/06/02 10:25:53;;;;;;;13.03;3.67;;;;;;;14.57;69.78;100113.56;4219706;28;20584;-52
2023/06/02 10:28:20;;;;;;;10.33;3.50;;;;;;;14.85;68.58;100123.91;4233315;28;20230;-52
2023/06/02 10:30:46;;;;;;;7.17;2.90;;;;;;;14.46;67.52;100135.78;4226875;28;20231;-42
2023/06/02 10:33:13;;;;;;;8.87;2.87;;;;;;;14.46;67.08;100134.91;4224199;28;21072;-43
2023/06/02 10:35:59;;;;;;;11.53;2.73;;;;;;;14.60;66.53;100138.75;4226736;28;20254;-41
2023/06/02 10:38:28;;;;;;;12.57;2.60;;;;;;;14.21;66.33;100144.09;4226410;28;20239;-44
2023/06/02 10:40:59;;;;;;;5.80;2.47;;;;;;;14.23;66.34;100149.34;4215995;28;21101;-44
2023/06/02 10:43:25;;;;;;;9.40;1.93;;;;;;;14.35;65.54;100147.06;4230576;28;20303;-46
2023/06/02 10:45:52;;;;;;;8.17;1.90;;;;;;;14.67;64.47;100158.81;4225890;28;21080;-43
2023/06/02 10:48:37;;;;;;;7.78;2.30;;;;;;;14.41;64.00;100154.50;4227716;28;22998;-42
2023/06/02 10:51:06;;;;;;;5.33;1.87;;;;;;;14.78;63.25;100161.09;4238730;28;21784;-44
2023/06/02 10:53:33;;;;;;;3.20;1.97;;;;;;;14.69;62.29;100154.88;4233519;28;20236;-42
2023/06/02 10:56:43;;;;;;;7.17;1.87;;;;;;;14.47;62.98;100150.22;4217495;28;20245;-73
2023/06/02 10:59:30;;;;;;;11.10;2.57;;;;;;;14.81;62.82;100152.56;4235330;28;20277;-70
2023/06/02 11:01:57;;;;;;;4.33;1.80;;;;;;;14.79;62.22;100149.19;4228742;28;20241;-70
2023/06/02 11:04:29;;;;;;;7.90;1.90;;;;;;;14.56;62.71;100160.03;4222449;28;20348;-74
2023/06/02 11:07:25;;;;;;;7.10;1.47;;;;;;;14.85;61.95;100158.50;4240122;28;20227;-76
2023/06/02 11:09:58;;;;;;;10.53;2.30;;;;;;;14.52;61.59;100169.59;4246191;28;21664;-67
2023/06/02 11:12:50;;;;;;;13.10;2.60;;;;;;;14.64;60.70;100167.31;4237856;28;20227;-72
2023/06/02 11:15:18;;;;;;;6.87;2.10;;;;;;;14.75;61.14;100164.22;4234660;28;20254;-70
2023/06/02 11:17:49;;;;;;;4.70;2.10;;;;;;;14.95;59.87;100171.88;4248361;28;20242;-70
2023/06/02 11:20:17;;;;;;;8.07;2.20;;;;;;;14.88;59.30;100175.34;4248961;28;20316;-67
2023/06/02 11:22:44;;;;;;;4.80;2.27;;;;;;;14.93;58.87;100180.25;4234892;28;20248;-72
2023/06/02 11:25:13;;;;;;;7.17;1.80;;;;;;;14.96;59.07;100189.94;4232121;28;22429;-75
2023/06/02 11:27:45;;;;;;;6.60;1.77;;;;;;;14.80;59.42;100194.47;4239600;28;21129;-71
2023/06/02 11:30:16;;;;;;;4.50;1.80;;;;;;;14.62;59.89;100199.31;4238176;28;20289;-69
2023/06/02 11:32:46;;;;;;;10.03;2.30;;;;;;;14.78;59.25;100198.41;4212697;28;20311;-68
2023/06/02 11:35:14;;;;;;;5.37;1.93;;;;;;;14.42;60.14;100200.66;4231970;28;21650;-72
2023/06/02 11:37:42;;;;;;;9.90;2.20;;;;;;;13.90;60.34;100206.63;4236758;28;20805;-73
2023/06/02 11:40:10;;;;;;;8.23;1.77;;;;;;;14.35;59.24;100213.25;4239845;28;20235;-69